sensor_id;sensor_type;location;lat;lon;timestamp;temperature;humidity
44517;DHT22;30223;17.182;-96.766;2022-12-07T00:03:47;25.20;49.80
44517;DHT22;30223;17.182;-96.766;2022-12-07T00:06:15;25.20;48.50
44517;DHT22;30223;17.182;-96.766;2022-12-07T00:08:43;25.20;48.40
44517;DHT22;30223;17.182;-96.766;2022-12-07T00:11:17;25.00;46.80
44517;DHT22;30223;17.182;-96.766;2022-12-07T00:13:45;24.90;47.50
44517;DHT22;30223;17.182;-96.766;2022-12-07T00:16:15;24.80;46.80
44517;DHT22;30223;17.182;-96.766;2022-12-07T00:18:43;24.80;48.10
44517;DHT22;30223;17.182;-96.766;2022-12-07T00:23:43;24.80;47.50
44517;DHT22;30223;17.182;-96.766;2022-12-07T00:26:44;24.80;47.40
44517;DHT22;30223;17.182;-96.766;2022-12-07T00:29:17;24.80;47.10
44517;DHT22;30223;17.182;-96.766;2022-12-07T00:31:44;24.80;48.20
44517;DHT22;30223;17.182;-96.766;2022-12-07T00:34:19;24.70;48.00
44517;DHT22;30223;17.182;-96.766;2022-12-07T00:36:46;24.70;47.50
44517;DHT22;30223;17.182;-96.766;2022-12-07T00:39:12;24.60;48.20
44517;DHT22;30223;17.182;-96.766;2022-12-07T00:41:39;24.60;48.80
44517;DHT22;30223;17.182;-96.766;2022-12-07T00:44:06;24.60;48.50
44517;DHT22;30223;17.182;-96.766;2022-12-07T00:46:32;24.60;48.80
44517;DHT22;30223;17.182;-96.766;2022-12-07T00:48:59;24.50;48.80
44517;DHT22;30223;17.182;-96.766;2022-12-07T00:51:26;24.50;48.20
44517;DHT22;30223;17.182;-96.766;2022-12-07T00:53:53;24.40;46.60
44517;DHT22;30223;17.182;-96.766;2022-12-07T00:56:25;24.40;47.60
44517;DHT22;30223;17.182;-96.766;2022-12-07T00:58:55;24.30;47.30
44517;DHT22;30223;17.182;-96.766;2022-12-07T01:01:23;24.30;47.40
44517;DHT22;30223;17.182;-96.766;2022-12-07T01:03:50;24.30;46.90
44517;DHT22;30223;17.182;-96.766;2022-12-07T01:06:18;24.10;44.90
44517;DHT22;30223;17.182;-96.766;2022-12-07T01:08:45;24.00;45.00
44517;DHT22;30223;17.182;-96.766;2022-12-07T01:11:15;24.00;45.90
44517;DHT22;30223;17.182;-96.766;2022-12-07T01:13:41;24.00;45.80
44517;DHT22;30223;17.182;-96.766;2022-12-07T01:16:11;24.00;46.30
44517;DHT22;30223;17.182;-96.766;2022-12-07T01:18:38;23.90;47.30
44517;DHT22;30223;17.182;-96.766;2022-12-07T01:21:15;24.00;48.10
44517;DHT22;30223;17.182;-96.766;2022-12-07T01:23:42;23.90;47.60
44517;DHT22;30223;17.182;-96.766;2022-12-07T01:26:14;23.90;47.20
44517;DHT22;30223;17.182;-96.766;2022-12-07T01:28:42;23.90;47.00
44517;DHT22;30223;17.182;-96.766;2022-12-07T01:31:12;23.90;45.90
44517;DHT22;30223;17.182;-96.766;2022-12-07T01:33:42;23.80;45.90
44517;DHT22;30223;17.182;-96.766;2022-12-07T01:38:40;23.80;45.50
44517;DHT22;30223;17.182;-96.766;2022-12-07T01:41:07;23.70;45.30
44517;DHT22;30223;17.182;-96.766;2022-12-07T01:43:34;23.70;44.50
44517;DHT22;30223;17.182;-96.766;2022-12-07T01:46:02;23.70;43.80
44517;DHT22;30223;17.182;-96.766;2022-12-07T01:48:40;23.60;44.10
44517;DHT22;30223;17.182;-96.766;2022-12-07T01:51:12;23.60;44.60
44517;DHT22;30223;17.182;-96.766;2022-12-07T01:53:43;23.60;43.80
44517;DHT22;30223;17.182;-96.766;2022-12-07T01:56:17;23.60;43.80
44517;DHT22;30223;17.182;-96.766;2022-12-07T01:58:45;23.60;43.80
44517;DHT22;30223;17.182;-96.766;2022-12-07T02:01:12;23.50;43.90
44517;DHT22;30223;17.182;-96.766;2022-12-07T02:03:41;23.50;43.30
44517;DHT22;30223;17.182;-96.766;2022-12-07T02:06:10;23.50;42.40
44517;DHT22;30223;17.182;-96.766;2022-12-07T02:08:38;23.40;42.80
44517;DHT22;30223;17.182;-96.766;2022-12-07T02:11:07;23.30;43.60
44517;DHT22;30223;17.182;-96.766;2022-12-07T02:13:37;23.30;44.90
44517;DHT22;30223;17.182;-96.766;2022-12-07T02:24:30;23.20;45.80
44517;DHT22;30223;17.182;-96.766;2022-12-07T02:27:50;23.20;43.90
44517;DHT22;30223;17.182;-96.766;2022-12-07T02:30:08;23.10;45.00
44517;DHT22;30223;17.182;-96.766;2022-12-07T02:32:40;23.10;45.40
44517;DHT22;30223;17.182;-96.766;2022-12-07T02:38:25;23.10;44.50
44517;DHT22;30223;17.182;-96.766;2022-12-07T02:41:12;23.10;44.10
44517;DHT22;30223;17.182;-96.766;2022-12-07T02:43:52;23.00;43.90
44517;DHT22;30223;17.182;-96.766;2022-12-07T02:46:27;23.00;45.20
44517;DHT22;30223;17.182;-96.766;2022-12-07T02:48:56;22.90;43.60
44517;DHT22;30223;17.182;-96.766;2022-12-07T02:51:25;22.90;45.20
44517;DHT22;30223;17.182;-96.766;2022-12-07T02:53:52;22.90;44.70
44517;DHT22;30223;17.182;-96.766;2022-12-07T03:05:05;22.60;45.90
44517;DHT22;30223;17.182;-96.766;2022-12-07T03:18:48;22.40;44.00
44517;DHT22;30223;17.182;-96.766;2022-12-07T03:21:20;22.40;45.30
44517;DHT22;30223;17.182;-96.766;2022-12-07T03:23:53;22.40;45.30
44517;DHT22;30223;17.182;-96.766;2022-12-07T03:26:23;22.40;45.00
44517;DHT22;30223;17.182;-96.766;2022-12-07T03:28:55;22.40;44.60
44517;DHT22;30223;17.182;-96.766;2022-12-07T03:31:33;22.40;44.90
44517;DHT22;30223;17.182;-96.766;2022-12-07T03:34:07;22.40;44.90
44517;DHT22;30223;17.182;-96.766;2022-12-07T03:36:55;22.40;45.40
44517;DHT22;30223;17.182;-96.766;2022-12-07T03:39:51;22.50;46.90
44517;DHT22;30223;17.182;-96.766;2022-12-07T03:42:18;22.60;48.00
44517;DHT22;30223;17.182;-96.766;2022-12-07T03:44:46;22.70;49.10
44517;DHT22;30223;17.182;-96.766;2022-12-07T03:47:40;22.70;49.50
44517;DHT22;30223;17.182;-96.766;2022-12-07T03:50:23;22.80;49.50
44517;DHT22;30223;17.182;-96.766;2022-12-07T03:53:08;22.80;49.90
44517;DHT22;30223;17.182;-96.766;2022-12-07T03:55:39;22.90;49.70
44517;DHT22;30223;17.182;-96.766;2022-12-07T03:58:09;23.00;50.50
44517;DHT22;30223;17.182;-96.766;2022-12-07T04:00:37;23.00;50.10
44517;DHT22;30223;17.182;-96.766;2022-12-07T04:03:04;23.00;49.80
44517;DHT22;30223;17.182;-96.766;2022-12-07T04:05:30;23.00;49.60
44517;DHT22;30223;17.182;-96.766;2022-12-07T04:07:57;23.00;49.60
44517;DHT22;30223;17.182;-96.766;2022-12-07T04:10:23;23.00;49.60
44517;DHT22;30223;17.182;-96.766;2022-12-07T04:12:50;22.90;49.50
44517;DHT22;30223;17.182;-96.766;2022-12-07T04:15:17;22.90;49.40
44517;DHT22;30223;17.182;-96.766;2022-12-07T04:17:43;22.90;49.50
44517;DHT22;30223;17.182;-96.766;2022-12-07T04:20:11;22.90;49.70
44517;DHT22;30223;17.182;-96.766;2022-12-07T04:22:37;22.80;49.70
44517;DHT22;30223;17.182;-96.766;2022-12-07T04:25:04;22.80;49.90
44517;DHT22;30223;17.182;-96.766;2022-12-07T04:27:31;22.70;49.70
44517;DHT22;30223;17.182;-96.766;2022-12-07T04:29:58;22.70;49.50
44517;DHT22;30223;17.182;-96.766;2022-12-07T04:32:24;22.70;49.50
44517;DHT22;30223;17.182;-96.766;2022-12-07T04:34:51;22.60;49.40
44517;DHT22;30223;17.182;-96.766;2022-12-07T04:37:17;22.60;49.40
44517;DHT22;30223;17.182;-96.766;2022-12-07T04:39:44;22.60;49.40
44517;DHT22;30223;17.182;-96.766;2022-12-07T04:42:11;22.50;49.30
44517;DHT22;30223;17.182;-96.766;2022-12-07T04:44:39;22.60;49.30
44517;DHT22;30223;17.182;-96.766;2022-12-07T04:47:05;22.50;49.20
44517;DHT22;30223;17.182;-96.766;2022-12-07T04:49:32;22.50;49.10
44517;DHT22;30223;17.182;-96.766;2022-12-07T04:51:59;22.50;49.10
44517;DHT22;30223;17.182;-96.766;2022-12-07T04:54:25;22.50;49.20
44517;DHT22;30223;17.182;-96.766;2022-12-07T04:56:52;22.50;49.10
44517;DHT22;30223;17.182;-96.766;2022-12-07T04:59:18;22.40;49.00
44517;DHT22;30223;17.182;-96.766;2022-12-07T05:01:45;22.40;49.10
44517;DHT22;30223;17.182;-96.766;2022-12-07T05:04:12;22.40;49.10
44517;DHT22;30223;17.182;-96.766;2022-12-07T05:06:39;22.40;49.10
44517;DHT22;30223;17.182;-96.766;2022-12-07T05:09:05;22.40;49.20
44517;DHT22;30223;17.182;-96.766;2022-12-07T05:11:32;22.30;49.20
44517;DHT22;30223;17.182;-96.766;2022-12-07T05:14:10;22.40;49.30
44517;DHT22;30223;17.182;-96.766;2022-12-07T05:16:37;22.40;49.40
44517;DHT22;30223;17.182;-96.766;2022-12-07T05:19:04;22.30;49.40
44517;DHT22;30223;17.182;-96.766;2022-12-07T05:21:31;22.30;49.40
44517;DHT22;30223;17.182;-96.766;2022-12-07T05:23:58;22.30;49.40
44517;DHT22;30223;17.182;-96.766;2022-12-07T05:26:24;22.30;49.50
44517;DHT22;30223;17.182;-96.766;2022-12-07T05:28:52;22.30;49.50
44517;DHT22;30223;17.182;-96.766;2022-12-07T05:31:19;22.20;49.60
44517;DHT22;30223;17.182;-96.766;2022-12-07T05:33:46;22.20;49.60
44517;DHT22;30223;17.182;-96.766;2022-12-07T05:36:13;22.20;49.70
44517;DHT22;30223;17.182;-96.766;2022-12-07T05:38:40;22.20;49.70
44517;DHT22;30223;17.182;-96.766;2022-12-07T05:41:08;22.20;49.90
44517;DHT22;30223;17.182;-96.766;2022-12-07T05:43:55;22.20;49.80
44517;DHT22;30223;17.182;-96.766;2022-12-07T05:46:22;22.20;49.90
44517;DHT22;30223;17.182;-96.766;2022-12-07T05:48:49;22.10;49.90
44517;DHT22;30223;17.182;-96.766;2022-12-07T05:51:15;22.10;50.00
44517;DHT22;30223;17.182;-96.766;2022-12-07T05:53:42;22.10;50.00
44517;DHT22;30223;17.182;-96.766;2022-12-07T05:56:09;22.10;50.00
44517;DHT22;30223;17.182;-96.766;2022-12-07T05:58:35;22.10;50.10
44517;DHT22;30223;17.182;-96.766;2022-12-07T06:01:20;22.10;50.20
44517;DHT22;30223;17.182;-96.766;2022-12-07T06:03:47;22.00;50.10
44517;DHT22;30223;17.182;-96.766;2022-12-07T06:06:14;22.00;50.10
44517;DHT22;30223;17.182;-96.766;2022-12-07T06:08:40;22.00;50.20
44517;DHT22;30223;17.182;-96.766;2022-12-07T06:11:07;22.00;50.30
44517;DHT22;30223;17.182;-96.766;2022-12-07T06:13:52;22.00;50.30
44517;DHT22;30223;17.182;-96.766;2022-12-07T06:16:18;22.00;50.40
44517;DHT22;30223;17.182;-96.766;2022-12-07T06:18:45;22.00;50.40
44517;DHT22;30223;17.182;-96.766;2022-12-07T06:21:12;22.00;50.40
44517;DHT22;30223;17.182;-96.766;2022-12-07T06:23:40;21.90;50.40
44517;DHT22;30223;17.182;-96.766;2022-12-07T06:26:07;21.90;50.50
44517;DHT22;30223;17.182;-96.766;2022-12-07T06:28:33;21.90;50.50
44517;DHT22;30223;17.182;-96.766;2022-12-07T06:31:01;21.90;50.50
44517;DHT22;30223;17.182;-96.766;2022-12-07T06:33:28;21.80;50.50
44517;DHT22;30223;17.182;-96.766;2022-12-07T06:35:55;21.90;50.60
44517;DHT22;30223;17.182;-96.766;2022-12-07T06:38:22;21.80;50.60
44517;DHT22;30223;17.182;-96.766;2022-12-07T06:40:49;21.80;50.70
44517;DHT22;30223;17.182;-96.766;2022-12-07T06:43:15;21.80;50.70
44517;DHT22;30223;17.182;-96.766;2022-12-07T06:45:42;21.80;50.80
44517;DHT22;30223;17.182;-96.766;2022-12-07T06:48:09;21.80;50.80
44517;DHT22;30223;17.182;-96.766;2022-12-07T06:50:35;21.70;50.80
44517;DHT22;30223;17.182;-96.766;2022-12-07T06:53:02;21.70;50.80
44517;DHT22;30223;17.182;-96.766;2022-12-07T06:55:29;21.70;50.90
44517;DHT22;30223;17.182;-96.766;2022-12-07T06:57:55;21.70;50.90
44517;DHT22;30223;17.182;-96.766;2022-12-07T07:00:22;21.70;50.90
44517;DHT22;30223;17.182;-96.766;2022-12-07T07:02:49;21.70;50.90
44517;DHT22;30223;17.182;-96.766;2022-12-07T07:05:15;21.70;51.00
44517;DHT22;30223;17.182;-96.766;2022-12-07T07:07:42;21.70;51.00
44517;DHT22;30223;17.182;-96.766;2022-12-07T07:10:09;21.70;51.00
44517;DHT22;30223;17.182;-96.766;2022-12-07T07:12:36;21.60;51.00
44517;DHT22;30223;17.182;-96.766;2022-12-07T07:15:03;21.60;51.00
44517;DHT22;30223;17.182;-96.766;2022-12-07T07:17:29;21.60;51.10
44517;DHT22;30223;17.182;-96.766;2022-12-07T07:19:56;21.60;51.20
44517;DHT22;30223;17.182;-96.766;2022-12-07T07:22:22;21.60;51.20
44517;DHT22;30223;17.182;-96.766;2022-12-07T07:24:49;21.60;51.20
44517;DHT22;30223;17.182;-96.766;2022-12-07T07:27:16;21.50;51.20
44517;DHT22;30223;17.182;-96.766;2022-12-07T07:29:42;21.60;51.30
44517;DHT22;30223;17.182;-96.766;2022-12-07T07:32:09;21.50;51.80
44517;DHT22;30223;17.182;-96.766;2022-12-07T07:34:36;21.50;51.20
44517;DHT22;30223;17.182;-96.766;2022-12-07T07:37:02;21.50;51.30
44517;DHT22;30223;17.182;-96.766;2022-12-07T07:39:29;21.50;51.20
44517;DHT22;30223;17.182;-96.766;2022-12-07T07:41:55;21.50;51.30
44517;DHT22;30223;17.182;-96.766;2022-12-07T07:44:22;21.50;51.30
44517;DHT22;30223;17.182;-96.766;2022-12-07T07:46:49;21.50;51.30
44517;DHT22;30223;17.182;-96.766;2022-12-07T07:49:15;21.40;51.30
44517;DHT22;30223;17.182;-96.766;2022-12-07T07:51:42;21.40;51.30
44517;DHT22;30223;17.182;-96.766;2022-12-07T07:54:08;21.40;51.30
44517;DHT22;30223;17.182;-96.766;2022-12-07T07:56:35;21.40;51.30
44517;DHT22;30223;17.182;-96.766;2022-12-07T07:59:02;21.40;51.40
44517;DHT22;30223;17.182;-96.766;2022-12-07T08:01:28;21.40;51.30
44517;DHT22;30223;17.182;-96.766;2022-12-07T08:03:55;21.40;51.40
44517;DHT22;30223;17.182;-96.766;2022-12-07T08:06:21;21.40;51.40
44517;DHT22;30223;17.182;-96.766;2022-12-07T08:08:48;21.30;51.30
44517;DHT22;30223;17.182;-96.766;2022-12-07T08:11:14;21.30;51.40
44517;DHT22;30223;17.182;-96.766;2022-12-07T08:13:41;21.30;51.40
44517;DHT22;30223;17.182;-96.766;2022-12-07T08:16:09;21.30;51.40
44517;DHT22;30223;17.182;-96.766;2022-12-07T08:18:38;21.30;51.50
44517;DHT22;30223;17.182;-96.766;2022-12-07T08:21:06;21.30;51.50
44517;DHT22;30223;17.182;-96.766;2022-12-07T08:23:33;21.20;51.50
44517;DHT22;30223;17.182;-96.766;2022-12-07T08:26:04;21.20;51.50
44517;DHT22;30223;17.182;-96.766;2022-12-07T08:28:31;21.20;51.50
44517;DHT22;30223;17.182;-96.766;2022-12-07T08:31:05;21.20;51.40
44517;DHT22;30223;17.182;-96.766;2022-12-07T08:33:33;21.20;51.50
44517;DHT22;30223;17.182;-96.766;2022-12-07T08:36:07;21.20;51.50
44517;DHT22;30223;17.182;-96.766;2022-12-07T08:38:38;21.20;51.50
44517;DHT22;30223;17.182;-96.766;2022-12-07T08:41:05;21.10;51.40
44517;DHT22;30223;17.182;-96.766;2022-12-07T08:43:33;21.10;51.50
44517;DHT22;30223;17.182;-96.766;2022-12-07T08:49:17;21.10;51.60
44517;DHT22;30223;17.182;-96.766;2022-12-07T08:51:45;21.00;51.50
44517;DHT22;30223;17.182;-96.766;2022-12-07T08:54:16;21.10;51.60
44517;DHT22;30223;17.182;-96.766;2022-12-07T08:56:43;21.00;51.50
44517;DHT22;30223;17.182;-96.766;2022-12-07T08:59:13;21.00;51.60
44517;DHT22;30223;17.182;-96.766;2022-12-07T09:01:41;21.00;51.60
44517;DHT22;30223;17.182;-96.766;2022-12-07T09:04:07;21.00;51.50
44517;DHT22;30223;17.182;-96.766;2022-12-07T09:06:34;21.00;51.60
44517;DHT22;30223;17.182;-96.766;2022-12-07T09:09:02;20.90;51.50
44517;DHT22;30223;17.182;-96.766;2022-12-07T09:11:29;20.90;51.60
44517;DHT22;30223;17.182;-96.766;2022-12-07T09:13:56;20.90;51.60
44517;DHT22;30223;17.182;-96.766;2022-12-07T09:16:22;20.90;51.60
44517;DHT22;30223;17.182;-96.766;2022-12-07T09:18:49;20.90;51.60
44517;DHT22;30223;17.182;-96.766;2022-12-07T09:21:15;20.90;51.60
44517;DHT22;30223;17.182;-96.766;2022-12-07T09:23:42;20.90;51.60
44517;DHT22;30223;17.182;-96.766;2022-12-07T09:26:09;20.90;51.70
44517;DHT22;30223;17.182;-96.766;2022-12-07T09:28:36;20.80;51.60
44517;DHT22;30223;17.182;-96.766;2022-12-07T09:31:03;20.80;51.60
44517;DHT22;30223;17.182;-96.766;2022-12-07T09:33:30;20.80;51.70
44517;DHT22;30223;17.182;-96.766;2022-12-07T09:35:57;20.80;51.70
44517;DHT22;30223;17.182;-96.766;2022-12-07T09:38:23;20.80;51.70
44517;DHT22;30223;17.182;-96.766;2022-12-07T09:40:54;20.70;51.70
44517;DHT22;30223;17.182;-96.766;2022-12-07T09:43:25;20.70;51.70
44517;DHT22;30223;17.182;-96.766;2022-12-07T09:45:54;20.70;51.70
44517;DHT22;30223;17.182;-96.766;2022-12-07T09:48:32;20.70;51.80
44517;DHT22;30223;17.182;-96.766;2022-12-07T09:51:00;20.60;51.70
44517;DHT22;30223;17.182;-96.766;2022-12-07T09:53:34;20.60;51.70
44517;DHT22;30223;17.182;-96.766;2022-12-07T09:56:02;20.60;52.30
44517;DHT22;30223;17.182;-96.766;2022-12-07T09:58:30;20.60;51.80
44517;DHT22;30223;17.182;-96.766;2022-12-07T10:01:01;20.60;51.80
44517;DHT22;30223;17.182;-96.766;2022-12-07T10:03:32;20.60;51.80
44517;DHT22;30223;17.182;-96.766;2022-12-07T10:05:58;20.60;51.80
44517;DHT22;30223;17.182;-96.766;2022-12-07T10:08:26;20.50;51.80
44517;DHT22;30223;17.182;-96.766;2022-12-07T10:10:54;20.50;51.80
44517;DHT22;30223;17.182;-96.766;2022-12-07T10:13:44;20.50;51.80
44517;DHT22;30223;17.182;-96.766;2022-12-07T10:18:51;20.40;51.80
44517;DHT22;30223;17.182;-96.766;2022-12-07T10:21:20;20.40;51.90
44517;DHT22;30223;17.182;-96.766;2022-12-07T10:24:02;20.40;51.90
44517;DHT22;30223;17.182;-96.766;2022-12-07T10:26:38;20.30;51.80
44517;DHT22;30223;17.182;-96.766;2022-12-07T10:29:34;20.30;51.80
44517;DHT22;30223;17.182;-96.766;2022-12-07T10:34:43;20.30;51.90
44517;DHT22;30223;17.182;-96.766;2022-12-07T10:39:49;20.30;51.90
44517;DHT22;30223;17.182;-96.766;2022-12-07T10:42:20;20.20;51.90
44517;DHT22;30223;17.182;-96.766;2022-12-07T10:45:24;20.20;51.90
44517;DHT22;30223;17.182;-96.766;2022-12-07T10:53:40;20.10;51.90
44517;DHT22;30223;17.182;-96.766;2022-12-07T11:04:59;20.10;51.90
44517;DHT22;30223;17.182;-96.766;2022-12-07T11:10:29;20.10;51.90
44517;DHT22;30223;17.182;-96.766;2022-12-07T11:13:25;20.00;51.90
44517;DHT22;30223;17.182;-96.766;2022-12-07T11:21:57;20.00;51.90
44517;DHT22;30223;17.182;-96.766;2022-12-07T11:27:34;19.90;51.90
44517;DHT22;30223;17.182;-96.766;2022-12-07T11:30:19;19.90;51.90
44517;DHT22;30223;17.182;-96.766;2022-12-07T11:33:49;19.90;51.90
44517;DHT22;30223;17.182;-96.766;2022-12-07T11:38:44;19.80;51.90
44517;DHT22;30223;17.182;-96.766;2022-12-07T11:41:13;19.80;51.90
44517;DHT22;30223;17.182;-96.766;2022-12-07T11:43:59;19.80;51.90
44517;DHT22;30223;17.182;-96.766;2022-12-07T11:46:56;19.80;51.90
44517;DHT22;30223;17.182;-96.766;2022-12-07T11:49:37;19.80;51.90
44517;DHT22;30223;17.182;-96.766;2022-12-07T11:52:21;19.70;51.90
44517;DHT22;30223;17.182;-96.766;2022-12-07T11:54:50;19.70;51.80
44517;DHT22;30223;17.182;-96.766;2022-12-07T11:57:32;19.60;51.80
44517;DHT22;30223;17.182;-96.766;2022-12-07T12:00:05;19.70;51.90
44517;DHT22;30223;17.182;-96.766;2022-12-07T12:02:48;19.60;51.80
44517;DHT22;30223;17.182;-96.766;2022-12-07T12:05:22;19.60;51.80
44517;DHT22;30223;17.182;-96.766;2022-12-07T12:19:32;19.50;51.80
44517;DHT22;30223;17.182;-96.766;2022-12-07T12:22:15;19.50;51.80
44517;DHT22;30223;17.182;-96.766;2022-12-07T12:24:45;19.40;51.80
44517;DHT22;30223;17.182;-96.766;2022-12-07T12:27:28;19.40;51.80
44517;DHT22;30223;17.182;-96.766;2022-12-07T12:30:00;19.40;51.80
44517;DHT22;30223;17.182;-96.766;2022-12-07T12:32:38;19.40;51.80
44517;DHT22;30223;17.182;-96.766;2022-12-07T12:35:31;19.40;51.80
44517;DHT22;30223;17.182;-96.766;2022-12-07T12:38:32;19.30;51.80
44517;DHT22;30223;17.182;-96.766;2022-12-07T12:41:01;19.30;51.80
44517;DHT22;30223;17.182;-96.766;2022-12-07T12:44:00;19.30;51.80
44517;DHT22;30223;17.182;-96.766;2022-12-07T12:51:58;19.30;51.80
44517;DHT22;30223;17.182;-96.766;2022-12-07T12:54:27;19.20;51.70
44517;DHT22;30223;17.182;-96.766;2022-12-07T12:57:04;19.20;51.70
44517;DHT22;30223;17.182;-96.766;2022-12-07T12:59:34;19.20;51.80
44517;DHT22;30223;17.182;-96.766;2022-12-07T13:02:27;19.20;51.80
44517;DHT22;30223;17.182;-96.766;2022-12-07T13:15:43;19.00;51.70
44517;DHT22;30223;17.182;-96.766;2022-12-07T13:20:59;19.00;51.60
44517;DHT22;30223;17.182;-96.766;2022-12-07T13:26:18;19.00;51.60
44517;DHT22;30223;17.182;-96.766;2022-12-07T13:31:48;19.00;51.70
44517;DHT22;30223;17.182;-96.766;2022-12-07T13:34:35;18.90;51.60
44517;DHT22;30223;17.182;-96.766;2022-12-07T13:39:50;18.90;51.70
44517;DHT22;30223;17.182;-96.766;2022-12-07T13:42:35;18.90;51.80
44517;DHT22;30223;17.182;-96.766;2022-12-07T13:45:28;18.90;51.90
44517;DHT22;30223;17.182;-96.766;2022-12-07T13:48:56;19.00;52.30
44517;DHT22;30223;17.182;-96.766;2022-12-07T13:54:00;19.00;51.70
44517;DHT22;30223;17.182;-96.766;2022-12-07T13:56:34;19.00;51.60
44517;DHT22;30223;17.182;-96.766;2022-12-07T13:59:02;19.00;51.50
44517;DHT22;30223;17.182;-96.766;2022-12-07T14:01:31;19.00;51.40
44517;DHT22;30223;17.182;-96.766;2022-12-07T14:04:16;19.00;51.90
44517;DHT22;30223;17.182;-96.766;2022-12-07T14:06:51;19.00;51.40
44517;DHT22;30223;17.182;-96.766;2022-12-07T14:09:23;19.00;51.40
44517;DHT22;30223;17.182;-96.766;2022-12-07T14:11:53;19.00;51.40
44517;DHT22;30223;17.182;-96.766;2022-12-07T14:14:29;19.00;51.50
44517;DHT22;30223;17.182;-96.766;2022-12-07T14:17:02;19.00;51.50
44517;DHT22;30223;17.182;-96.766;2022-12-07T14:22:18;19.00;51.50
44517;DHT22;30223;17.182;-96.766;2022-12-07T14:24:45;18.90;51.50
44517;DHT22;30223;17.182;-96.766;2022-12-07T14:27:22;18.90;51.60
44517;DHT22;30223;17.182;-96.766;2022-12-07T14:29:51;18.90;51.60
44517;DHT22;30223;17.182;-96.766;2022-12-07T14:32:27;18.90;51.60
44517;DHT22;30223;17.182;-96.766;2022-12-07T14:35:09;18.90;51.60
44517;DHT22;30223;17.182;-96.766;2022-12-07T14:37:36;18.90;51.60
44517;DHT22;30223;17.182;-96.766;2022-12-07T14:40:03;18.90;51.70
44517;DHT22;30223;17.182;-96.766;2022-12-07T14:42:31;18.90;51.70
44517;DHT22;30223;17.182;-96.766;2022-12-07T14:44:59;19.00;51.80
44517;DHT22;30223;17.182;-96.766;2022-12-07T14:47:26;19.00;51.80
44517;DHT22;30223;17.182;-96.766;2022-12-07T14:49:53;19.00;51.90
44517;DHT22;30223;17.182;-96.766;2022-12-07T14:52:27;19.00;51.90
44517;DHT22;30223;17.182;-96.766;2022-12-07T14:54:54;19.00;51.90
44517;DHT22;30223;17.182;-96.766;2022-12-07T14:57:21;19.00;52.00
44517;DHT22;30223;17.182;-96.766;2022-12-07T14:59:47;19.10;52.00
44517;DHT22;30223;17.182;-96.766;2022-12-07T15:02:15;19.00;52.00
44517;DHT22;30223;17.182;-96.766;2022-12-07T15:04:42;19.00;52.00
44517;DHT22;30223;17.182;-96.766;2022-12-07T15:07:20;19.00;52.10
44517;DHT22;30223;17.182;-96.766;2022-12-07T15:09:48;19.00;52.10
44517;DHT22;30223;17.182;-96.766;2022-12-07T15:12:14;19.00;52.10
44517;DHT22;30223;17.182;-96.766;2022-12-07T15:14:41;19.10;52.30
44517;DHT22;30223;17.182;-96.766;2022-12-07T15:17:10;19.10;52.30
44517;DHT22;30223;17.182;-96.766;2022-12-07T15:19:38;19.10;52.20
44517;DHT22;30223;17.182;-96.766;2022-12-07T15:22:04;19.10;52.30
44517;DHT22;30223;17.182;-96.766;2022-12-07T15:24:31;19.10;52.30
44517;DHT22;30223;17.182;-96.766;2022-12-07T15:26:59;19.20;52.40
44517;DHT22;30223;17.182;-96.766;2022-12-07T15:29:25;19.20;52.40
44517;DHT22;30223;17.182;-96.766;2022-12-07T15:31:52;19.20;52.40
44517;DHT22;30223;17.182;-96.766;2022-12-07T15:34:19;19.20;52.40
44517;DHT22;30223;17.182;-96.766;2022-12-07T15:36:46;19.20;52.40
44517;DHT22;30223;17.182;-96.766;2022-12-07T15:39:12;19.20;52.50
44517;DHT22;30223;17.182;-96.766;2022-12-07T15:41:39;19.20;52.50
44517;DHT22;30223;17.182;-96.766;2022-12-07T15:44:05;19.20;52.50
44517;DHT22;30223;17.182;-96.766;2022-12-07T15:46:50;19.30;52.50
44517;DHT22;30223;17.182;-96.766;2022-12-07T15:49:18;19.30;52.50
44517;DHT22;30223;17.182;-96.766;2022-12-07T15:51:45;19.30;52.50
44517;DHT22;30223;17.182;-96.766;2022-12-07T15:54:20;19.30;52.50
44517;DHT22;30223;17.182;-96.766;2022-12-07T15:56:48;19.30;53.20
44517;DHT22;30223;17.182;-96.766;2022-12-07T15:59:14;19.30;52.50
44517;DHT22;30223;17.182;-96.766;2022-12-07T16:01:41;19.30;52.50
44517;DHT22;30223;17.182;-96.766;2022-12-07T16:04:08;19.40;52.60
44517;DHT22;30223;17.182;-96.766;2022-12-07T16:06:34;19.40;52.70
44517;DHT22;30223;17.182;-96.766;2022-12-07T16:09:01;19.40;52.70
44517;DHT22;30223;17.182;-96.766;2022-12-07T16:11:28;19.40;52.70
44517;DHT22;30223;17.182;-96.766;2022-12-07T16:13:55;19.40;52.70
44517;DHT22;30223;17.182;-96.766;2022-12-07T16:16:22;19.40;52.80
44517;DHT22;30223;17.182;-96.766;2022-12-07T16:18:49;19.40;52.70
44517;DHT22;30223;17.182;-96.766;2022-12-07T16:21:17;19.40;52.70
44517;DHT22;30223;17.182;-96.766;2022-12-07T16:23:44;19.50;52.80
44517;DHT22;30223;17.182;-96.766;2022-12-07T16:26:19;19.50;52.80
44517;DHT22;30223;17.182;-96.766;2022-12-07T16:28:49;19.50;52.80
44517;DHT22;30223;17.182;-96.766;2022-12-07T16:31:20;19.60;52.80
44517;DHT22;30223;17.182;-96.766;2022-12-07T16:33:47;19.60;52.80
44517;DHT22;30223;17.182;-96.766;2022-12-07T16:36:15;19.60;52.80
44517;DHT22;30223;17.182;-96.766;2022-12-07T16:38:43;19.70;52.80
44517;DHT22;30223;17.182;-96.766;2022-12-07T16:41:10;19.70;52.90
44517;DHT22;30223;17.182;-96.766;2022-12-07T16:43:37;19.70;52.90
44517;DHT22;30223;17.182;-96.766;2022-12-07T16:46:04;19.70;52.80
44517;DHT22;30223;17.182;-96.766;2022-12-07T16:48:31;19.80;52.90
44517;DHT22;30223;17.182;-96.766;2022-12-07T16:50:58;19.80;52.80
44517;DHT22;30223;17.182;-96.766;2022-12-07T16:53:28;19.80;52.80
44517;DHT22;30223;17.182;-96.766;2022-12-07T16:55:55;19.80;52.80
44517;DHT22;30223;17.182;-96.766;2022-12-07T16:58:21;19.80;52.90
44517;DHT22;30223;17.182;-96.766;2022-12-07T17:00:48;19.90;52.90
44517;DHT22;30223;17.182;-96.766;2022-12-07T17:03:15;19.90;52.80
44517;DHT22;30223;17.182;-96.766;2022-12-07T17:05:44;20.00;52.90
44517;DHT22;30223;17.182;-96.766;2022-12-07T17:08:11;20.00;52.90
44517;DHT22;30223;17.182;-96.766;2022-12-07T17:10:41;20.00;52.90
44517;DHT22;30223;17.182;-96.766;2022-12-07T17:13:08;20.00;52.90
44517;DHT22;30223;17.182;-96.766;2022-12-07T17:15:58;20.10;52.90
44517;DHT22;30223;17.182;-96.766;2022-12-07T17:18:31;20.10;52.80
44517;DHT22;30223;17.182;-96.766;2022-12-07T17:21:05;20.10;52.80
44517;DHT22;30223;17.182;-96.766;2022-12-07T17:23:33;20.10;52.70
44517;DHT22;30223;17.182;-96.766;2022-12-07T17:26:11;20.20;52.50
44517;DHT22;30223;17.182;-96.766;2022-12-07T17:28:39;20.20;52.30